Nearby METAR Reports

 

KLBE - Latrobe/Westmorl, Pennsylvania, USA
Distance from station: SE 16mi, 26km
Updated: Fri, 29-May-2015 1:35am EDT
Clear
Clear
 Wind from calm
Wind: Calm
Temperature: 57°F , 14°C
Dew Point: 57°F , 14°C
Humidity: 100%
Barometer: 30.26 inHg , 1024.7 hPa
Clouds: Clear
Visibility: 10 miles , 16 km
2015/05/29 05:35 KLBE 290535Z AUTO 00000KT 10SM CLR 14/14 A3026 RMK AO2
KAGC - Pittsburgh/Alleg, Pennsylvania, USA
Distance from station: WSW 18mi, 30km
Updated: Fri, 29-May-2015 12:53am EDT
Clear
Clear
 Wind from ENE
Wind: ENE 5 mph , 7 km/h
Temperature: 66°F , 19°C
Dew Point: 48°F , 9°C
Humidity: 52%
Barometer: 30.23 inHg , 1023.7 hPa
Clouds: Clear
Visibility: 10 miles , 16 km
2015/05/29 04:53 KAGC 290453Z 07004KT 10SM CLR 19/09 A3023 RMK AO2 SLP234 T01940089 402670178
 
KBTP - Butler Co., Pennsylvania, USA
Distance from station: NW 29mi, 47km
Updated: Fri, 29-May-2015 1:35am EDT
Clear
Clear
 Wind from NE
Wind: NE 3 mph , 6 km/h
Temperature: 57°F , 14°C
Dew Point: 54°F , 12°C
Humidity: 88%
Barometer: 30.26 inHg , 1024.7 hPa
Clouds: Clear
Visibility: 10 miles , 16 km
2015/05/29 05:35 KBTP 290535Z AUTO 05003KT 10SM CLR 14/12 A3026 RMK AO1
KIDI - Indiana/Stewart, Pennsylvania, USA
Distance from station: ENE 29mi, 47km
Updated: Fri, 29-May-2015 1:35am EDT
Partly cloudy
Partly cloudy
 Wind from calm
Wind: Calm
Temperature: 59°F , 15°C
Dew Point: 54°F , 12°C
Humidity: 82%
Barometer: 30.29 inHg , 1025.7 hPa
Clouds: Partly cloudy
Visibility: 10 miles , 16 km
Cloud details: Partly cloudy 6000 ft
2015/05/29 05:35 KIDI 290535Z AUTO 00000KT 10SM SCT060 15/12 A3029 RMK A01
 
KPIT - Pittsburgh, Pennsylvania, USA
Distance from station: W 36mi, 57km
Updated: Fri, 29-May-2015 1:51am EDT
Clear
Clear
 Wind from calm
Wind: Calm
Temperature: 64°F , 18°C
Dew Point: 54°F , 12°C
Humidity: 68%
Barometer: 30.22 inHg , 1023.4 hPa
Clouds: Clear
Visibility: 10 miles , 16 km
2015/05/29 05:51 KPIT 290551Z 00000KT 10SM CLR 18/12 A3022 RMK AO2 SLP233 T01830122 10256 20172 58013
KJST - Johnstown, Pennsylvania, USA
Distance from station: ESE 41mi, 66km
Updated: Fri, 29-May-2015 12:54am EDT
Clear
Clear
 Wind from ENE
Wind: ENE 6 mph , 9 km/h
Temperature: 63°F , 17°C
Dew Point: 50°F , 10°C
Humidity: 64%
Barometer: 30.29 inHg , 1025.7 hPa
Clouds: Clear
Visibility: 10 miles , 16 km
2015/05/29 04:54 KJST 290454Z AUTO 06005KT 10SM CLR 17/10 A3029 RMK AO2 SLP246 T01670100 402500167
 
KAFJ - Washington, Pennsylvania, USA
Distance from station: WSW 42mi, 68km
Updated: Fri, 29-May-2015 1:35am EDT
Clear
Clear
 Wind from calm
Wind: Calm
Temperature: 55°F , 13°C
Dew Point: 54°F , 12°C
Humidity: 94%
Barometer: 30.24 inHg , 1024 hPa
Clouds: Clear
Visibility: 4 miles , 6 km
2015/05/29 05:35 KAFJ 290535Z AUTO 00000KT 4SM CLR 13/12 A3024 RMK AO1
KBVI - Beaver Falls Arp, Pennsylvania, USA
Distance from station: WNW 48mi, 77km
Updated: Thu, 28-May-2015 8:47pm EDT
NOT Current
Clear
Clear
 Wind from calm
Wind: Calm
Temperature: 72°F , 22°C
Dew Point: 54°F , 12°C
Humidity: 53%
Barometer: 30.23 inHg , 1023.7 hPa
Clouds: Clear
Visibility: 10 miles , 16 km
2015/05/29 00:47 KBVI 290047Z 00000KT 10SM CLR 22/12 A3023 RMK LAST